Terminal Aerodrome Forecast
Issued by NWS

Home | Current Version | Previous Version | Text Only | Print | Product List | Glossary On
Versions: 1 2 3 4 5 6 7 8 9 10 11 12 13 14 15 16 17
000
FTUS46 KOTX 262329
TAFPUW
TAF
KPUW 262329Z 2700/2724 34006KT P6SM -RA SCT015 BKN040 OVC050
     FM270400 23005KT P6SM -RA SCT015 OVC030
     FM270700 25008KT P6SM -RA BKN010 OVC025
     FM271500 25008KT P6SM VCSH SCT010 BKN020
     FM271800 24012G16KT P6SM VCSH BKN025 BKN080=

USA.gov is the U.S. government's official web portal to all federal, state and local government web resources and services.